Time;durP1;ratioP1;P1;durP2;ratioP2;P2;SDS_P1;SDS_P2;PMS_P1;PMS_P2;Temp;Humidity;BMP_temperature;BMP_pressure;BME280_temperature;BME280_humidity;BME280_pressure;Samples;Min_cycle;Max_cycle;Signal;HPM_P1;HPM_P2
2022/05/06 00:00:11;;;;;;;9.97;6.30;;;13.00;99.90;;;;;;5064697;28;20450;-72
2022/05/06 00:02:58;;;;;;;7.90;6.00;;;12.80;99.90;;;;;;5063789;28;20425;-73
2022/05/06 00:05:44;;;;;;;8.30;6.90;;;12.70;99.90;;;;;;5070228;28;21009;-73
2022/05/06 00:08:29;;;;;;;10.60;6.17;;;12.80;99.90;;;;;;5070367;28;20405;-73
2022/05/06 00:11:15;;;;;;;9.50;6.57;;;12.70;99.90;;;;;;5065733;28;21027;-72
2022/05/06 00:14:01;;;;;;;10.27;6.43;;;12.70;99.90;;;;;;5069498;28;20448;-72
2022/05/06 00:16:47;;;;;;;17.37;6.70;;;12.70;99.90;;;;;;5056307;28;20426;-72
2022/05/06 00:19:35;;;;;;;10.30;7.77;;;12.80;99.90;;;;;;5068588;28;20985;-72
2022/05/06 00:22:20;;;;;;;7.90;5.93;;;12.70;99.90;;;;;;5065977;28;20510;-72
2022/05/06 00:25:06;;;;;;;12.43;6.20;;;12.70;99.90;;;;;;5064719;28;20453;-73
2022/05/06 00:27:52;;;;;;;9.40;6.40;;;12.70;99.90;;;;;;5068668;28;20436;-72
2022/05/06 00:30:37;;;;;;;10.13;5.93;;;12.70;99.90;;;;;;5063849;28;20551;-72
2022/05/06 00:33:24;;;;;;;8.73;6.90;;;12.70;99.90;;;;;;5067563;28;20452;-72
2022/05/06 00:36:11;;;;;;;7.40;6.13;;;12.80;99.90;;;;;;5053681;28;20602;-72
2022/05/06 00:38:57;;;;;;;7.57;6.37;;;12.80;99.90;;;;;;5059408;28;20469;-72
2022/05/06 00:41:42;;;;;;;7.00;5.97;;;12.80;99.90;;;;;;5072510;28;20476;-72
2022/05/06 00:44:29;;;;;;;6.30;5.37;;;12.80;99.90;;;;;;5057899;28;20468;-72
2022/05/06 00:47:17;;;;;;;9.10;5.57;;;12.80;99.90;;;;;;5056646;28;20447;-72
2022/05/06 00:50:04;;;;;;;7.10;5.00;;;12.70;99.90;;;;;;5064661;28;20993;-73
2022/05/06 00:52:51;;;;;;;8.97;5.50;;;12.70;99.90;;;;;;5068240;28;20497;-72
2022/05/06 00:55:37;;;;;;;9.17;6.57;;;12.70;99.90;;;;;;5068401;28;20524;-72
2022/05/06 00:58:25;;;;;;;10.13;6.00;;;12.70;99.90;;;;;;5058680;28;20989;-72
2022/05/06 01:01:11;;;;;;;6.97;5.03;;;12.70;99.90;;;;;;5060015;28;20855;-72
2022/05/06 01:03:57;;;;;;;7.50;4.93;;;12.70;99.90;;;;;;5059025;28;20449;-72
2022/05/06 01:06:43;;;;;;;8.60;5.93;;;12.70;99.90;;;;;;5058377;28;20416;-72
2022/05/06 01:09:30;;;;;;;7.93;5.00;;;12.70;99.90;;;;;;5068718;28;20840;-72
2022/05/06 01:12:16;;;;;;;10.07;5.03;;;12.70;99.90;;;;;;5066299;28;20480;-72
2022/05/06 01:15:01;;;;;;;6.17;4.73;;;12.70;99.90;;;;;;5053896;28;20542;-72
2022/05/06 01:17:47;;;;;;;6.63;4.67;;;12.70;99.90;;;;;;5053672;28;20420;-72
2022/05/06 01:20:37;;;;;;;12.10;5.10;;;12.60;99.90;;;;;;5055921;28;20630;-72
2022/05/06 01:23:25;;;;;;;6.30;4.73;;;12.60;99.90;;;;;;5057712;28;20452;-72
2022/05/06 01:26:11;;;;;;;7.90;5.00;;;12.70;99.90;;;;;;5067479;28;20438;-72
2022/05/06 01:28:57;;;;;;;10.70;4.80;;;12.70;99.90;;;;;;5066532;28;20454;-72
2022/05/06 01:31:43;;;;;;;8.73;4.30;;;12.70;99.90;;;;;;5072519;28;20413;-72
2022/05/06 01:34:32;;;;;;;8.90;5.50;;;12.70;99.90;;;;;;5067942;28;20441;-72
2022/05/06 01:37:20;;;;;;;5.27;4.70;;;12.50;99.90;;;;;;5064010;28;20842;-73
2022/05/06 01:40:09;;;;;;;7.33;5.13;;;12.40;99.90;;;;;;5065551;28;20443;-72
2022/05/06 01:42:58;;;;;;;6.40;5.13;;;12.40;99.90;;;;;;5065101;28;20446;-72
2022/05/06 01:45:44;;;;;;;6.80;5.07;;;12.40;99.90;;;;;;5068095;28;20786;-72
2022/05/06 01:48:30;;;;;;;9.57;5.03;;;12.40;99.90;;;;;;5071365;28;20516;-72
2022/05/06 01:51:16;;;;;;;5.83;4.67;;;12.40;99.90;;;;;;5068517;28;20533;-72
2022/05/06 01:54:02;;;;;;;4.57;4.13;;;12.50;99.90;;;;;;5065083;28;20474;-72
2022/05/06 01:56:49;;;;;;;5.00;3.90;;;12.40;99.90;;;;;;5065995;28;20506;-72
2022/05/06 01:59:35;;;;;;;5.10;4.20;;;12.40;99.90;;;;;;5065889;28;20948;-72
2022/05/06 02:02:21;;;;;;;8.30;4.60;;;12.40;99.90;;;;;;5067758;28;20507;-72
2022/05/06 02:05:19;;;;;;;6.93;4.53;;;12.50;99.90;;;;;;5068073;28;20445;-72
2022/05/06 02:08:08;;;;;;;12.30;5.30;;;12.50;99.90;;;;;;5068201;28;20521;-72
2022/05/06 02:10:53;;;;;;;9.63;5.37;;;12.50;99.90;;;;;;5069842;28;20432;-72
2022/05/06 02:13:40;;;;;;;9.40;5.23;;;12.40;99.90;;;;;;5066795;28;20945;-72
2022/05/06 02:16:27;;;;;;;5.47;4.60;;;12.50;99.90;;;;;;5067877;28;20449;-72
2022/05/06 02:19:13;;;;;;;6.47;4.23;;;12.40;99.90;;;;;;5073388;28;20412;-72
2022/05/06 02:21:59;;;;;;;7.20;4.60;;;12.50;99.90;;;;;;5068919;28;20470;-72
2022/05/06 02:24:45;;;;;;;5.80;4.70;;;12.40;99.90;;;;;;5067597;28;20933;-72
2022/05/06 02:27:31;;;;;;;5.80;4.40;;;12.40;99.90;;;;;;5071418;28;20419;-72
2022/05/06 02:33:24;;;;;;;6.87;4.33;;;12.30;99.90;;;;;;5066778;28;20437;-72
2022/05/06 02:36:09;;;;;;;9.07;5.27;;;12.30;99.90;;;;;;5069267;28;20842;-72
2022/05/06 02:38:55;;;;;;;6.30;5.40;;;12.40;99.90;;;;;;5067381;28;20461;-72
2022/05/06 02:41:40;;;;;;;10.03;4.93;;;12.40;99.90;;;;;;5069074;28;20447;-72
2022/05/06 02:44:26;;;;;;;8.73;5.10;;;12.50;99.90;;;;;;5072942;28;20556;-72
2022/05/06 02:47:13;;;;;;;10.20;5.30;;;12.50;99.90;;;;;;5064506;28;20454;-72
2022/05/06 02:49:59;;;;;;;8.40;6.17;;;12.60;99.90;;;;;;5064850;28;20466;-72
2022/05/06 02:52:44;;;;;;;13.93;6.80;;;12.70;99.90;;;;;;5065979;28;20443;-72
2022/05/06 02:55:30;;;;;;;9.80;5.87;;;12.80;99.90;;;;;;5069913;28;20432;-72
2022/05/06 02:58:16;;;;;;;14.50;5.47;;;12.80;99.90;;;;;;5061733;28;20789;-72
2022/05/06 03:01:02;;;;;;;9.50;5.70;;;12.90;99.90;;;;;;5067398;28;20413;-72
2022/05/06 03:03:49;;;;;;;17.20;5.93;;;13.00;99.90;;;;;;5066171;28;20837;-72
2022/05/06 03:06:35;;;;;;;7.30;5.30;;;12.90;99.90;;;;;;5068215;28;20418;-72
2022/05/06 03:09:20;;;;;;;10.23;5.67;;;12.90;99.90;;;;;;5068352;28;20793;-73
2022/05/06 03:12:07;;;;;;;17.93;5.67;;;12.90;99.90;;;;;;5066001;28;20483;-72
2022/05/06 03:14:52;;;;;;;11.27;5.50;;;12.90;99.90;;;;;;5065458;28;20453;-72
2022/05/06 03:17:38;;;;;;;8.90;5.30;;;12.90;99.90;;;;;;5062934;28;20444;-72
2022/05/06 03:20:25;;;;;;;9.07;5.40;;;12.80;99.90;;;;;;5066659;28;20525;-72
2022/05/06 03:23:11;;;;;;;9.00;4.93;;;12.80;99.90;;;;;;5057888;28;20996;-72
2022/05/06 03:25:56;;;;;;;8.13;5.77;;;12.70;99.90;;;;;;5069649;28;20442;-72
2022/05/06 03:28:43;;;;;;;7.80;5.30;;;12.60;99.90;;;;;;5074833;28;20448;-72
2022/05/06 03:31:29;;;;;;;8.80;5.10;;;12.50;99.90;;;;;;5065033;28;20931;-72
2022/05/06 03:34:17;;;;;;;6.10;4.70;;;12.40;99.90;;;;;;5068357;28;20432;-72
2022/05/06 03:37:04;;;;;;;7.53;5.40;;;12.40;99.90;;;;;;5068023;28;20440;-72
2022/05/06 03:39:50;;;;;;;10.77;5.50;;;12.30;99.90;;;;;;5063697;28;20470;-72
2022/05/06 03:42:36;;;;;;;6.30;5.00;;;12.20;99.90;;;;;;5068155;28;20450;-72
2022/05/06 03:45:21;;;;;;;7.30;5.63;;;12.10;99.90;;;;;;5067356;28;20528;-72
2022/05/06 03:48:07;;;;;;;9.20;5.90;;;12.10;99.90;;;;;;5063880;28;20521;-72
2022/05/06 03:53:58;;;;;;;6.63;4.70;;;12.20;99.90;;;;;;5061820;28;20555;-72
2022/05/06 03:56:44;;;;;;;6.30;4.93;;;12.10;99.90;;;;;;5064130;28;20896;-72
2022/05/06 03:59:30;;;;;;;17.20;6.57;;;11.90;99.90;;;;;;5069150;28;20426;-72
2022/05/06 04:02:15;;;;;;;6.37;5.23;;;11.90;99.90;;;;;;5070341;28;20476;-72
2022/05/06 04:05:01;;;;;;;9.17;5.40;;;11.80;99.90;;;;;;5069288;28;20453;-72
2022/05/06 04:07:47;;;;;;;6.10;4.77;;;11.80;99.90;;;;;;5068595;28;20442;-72
2022/05/06 04:10:34;;;;;;;6.07;4.37;;;11.70;99.90;;;;;;5065753;28;20446;-72
2022/05/06 04:13:20;;;;;;;10.63;5.60;;;11.80;99.90;;;;;;5065278;28;20449;-72
2022/05/06 04:16:06;;;;;;;10.63;5.80;;;11.70;99.90;;;;;;5061882;28;20801;-72
2022/05/06 04:18:52;;;;;;;13.00;5.00;;;11.70;99.90;;;;;;5052088;28;20864;-72
2022/05/06 04:24:41;;;;;;;8.17;5.27;;;11.60;99.90;;;;;;5061520;28;20458;-72
2022/05/06 04:27:27;;;;;;;5.17;4.63;;;11.60;99.90;;;;;;5067797;28;20425;-72
2022/05/06 04:30:14;;;;;;;6.40;5.20;;;11.60;99.90;;;;;;5065760;28;20413;-72
2022/05/06 04:32:59;;;;;;;6.63;4.80;;;11.60;99.90;;;;;;5064676;28;20407;-72
2022/05/06 04:35:45;;;;;;;9.20;5.83;;;11.50;99.90;;;;;;5065611;28;20482;-72
2022/05/06 04:38:31;;;;;;;8.50;5.73;;;11.40;99.90;;;;;;5062972;28;20416;-72
2022/05/06 04:41:17;;;;;;;15.50;7.67;;;11.40;99.90;;;;;;5064366;28;20413;-72
2022/05/06 04:44:04;;;;;;;11.83;6.10;;;11.50;99.90;;;;;;5067943;28;20470;-72
2022/05/06 04:46:50;;;;;;;5.77;4.87;;;11.40;99.90;;;;;;5070289;28;20457;-72
2022/05/06 04:49:35;;;;;;;10.03;5.10;;;11.40;99.90;;;;;;5065545;28;20449;-72
2022/05/06 04:52:21;;;;;;;8.53;5.53;;;11.40;99.90;;;;;;5066556;28;20803;-72
2022/05/06 04:55:08;;;;;;;8.43;5.17;;;11.40;99.90;;;;;;5063792;28;20829;-72
2022/05/06 04:57:54;;;;;;;5.90;4.97;;;11.40;99.90;;;;;;5062788;28;20808;-72
2022/05/06 05:00:40;;;;;;;7.23;4.73;;;11.40;99.90;;;;;;5065731;28;20421;-72
2022/05/06 05:03:26;;;;;;;9.03;5.20;;;11.50;99.90;;;;;;5065825;28;20462;-72
2022/05/06 05:06:13;;;;;;;5.63;4.40;;;11.70;99.90;;;;;;5069344;28;20442;-72
2022/05/06 05:08:59;;;;;;;6.13;4.67;;;11.70;99.90;;;;;;5064825;28;20429;-72
2022/05/06 05:11:45;;;;;;;6.20;4.20;;;11.60;99.90;;;;;;5066746;28;21164;-72
2022/05/06 05:14:31;;;;;;;6.13;4.40;;;11.70;99.90;;;;;;5065198;28;20482;-71
2022/05/06 05:17:18;;;;;;;6.67;4.50;;;11.60;99.90;;;;;;5066321;28;20675;-71
2022/05/06 05:20:04;;;;;;;6.40;4.20;;;11.80;99.90;;;;;;5063734;28;20496;-72
2022/05/06 05:22:50;;;;;;;6.97;4.60;;;11.80;99.90;;;;;;5066388;28;20420;-72
2022/05/06 05:25:35;;;;;;;7.63;4.33;;;11.90;99.90;;;;;;5059350;28;20413;-72
2022/05/06 05:28:21;;;;;;;7.30;4.43;;;12.10;99.90;;;;;;5068737;28;20940;-72
2022/05/06 05:31:07;;;;;;;7.60;4.97;;;12.20;99.90;;;;;;5066580;28;20453;-72
2022/05/06 05:33:54;;;;;;;6.60;4.67;;;12.30;99.90;;;;;;5062356;28;20483;-72
2022/05/06 05:36:40;;;;;;;7.30;5.20;;;12.40;99.90;;;;;;5072470;28;20995;-72
2022/05/06 05:39:25;;;;;;;5.50;4.60;;;12.50;99.90;;;;;;5066726;28;20425;-72
2022/05/06 05:42:13;;;;;;;9.70;4.97;;;12.60;99.90;;;;;;5067137;28;20422;-72
2022/05/06 05:51:07;;;;;;;6.50;4.50;;;12.90;99.90;;;;;;5066077;28;20925;-72
2022/05/06 05:53:53;;;;;;;14.13;5.33;;;13.00;99.90;;;;;;5057186;28;20465;-71
2022/05/06 05:56:38;;;;;;;7.67;5.00;;;13.00;99.90;;;;;;5061709;28;20478;-72
2022/05/06 05:59:24;;;;;;;7.50;4.70;;;13.10;99.90;;;;;;5065408;28;20420;-72
2022/05/06 06:02:11;;;;;;;7.00;5.03;;;13.20;99.90;;;;;;5067417;28;20457;-72
2022/05/06 06:04:56;;;;;;;7.10;5.40;;;13.30;99.90;;;;;;5063132;28;21071;-72
2022/05/06 06:07:44;;;;;;;10.53;6.53;;;13.30;99.90;;;;;;5065082;28;20548;-72
2022/05/06 06:10:30;;;;;;;9.70;5.00;;;13.30;99.90;;;;;;5066116;28;20994;-72
2022/05/06 06:13:17;;;;;;;10.83;4.20;;;13.40;99.90;;;;;;5065158;28;21124;-72
2022/05/06 06:16:03;;;;;;;8.43;4.63;;;13.40;99.90;;;;;;5065625;28;20999;-72
2022/05/06 06:18:49;;;;;;;12.17;5.10;;;13.40;99.90;;;;;;5067203;28;20449;-72
2022/05/06 06:21:35;;;;;;;6.80;5.00;;;13.40;99.90;;;;;;5071064;28;20425;-72
2022/05/06 06:24:22;;;;;;;10.70;5.10;;;13.50;99.90;;;;;;5067458;28;20977;-72
2022/05/06 06:27:08;;;;;;;8.83;4.70;;;13.50;99.90;;;;;;5070084;28;20413;-72
2022/05/06 06:29:54;;;;;;;10.53;4.47;;;13.50;99.90;;;;;;5068032;28;20504;-72
2022/05/06 06:32:39;;;;;;;7.33;5.27;;;13.50;99.90;;;;;;5071394;28;20447;-72
2022/05/06 06:35:25;;;;;;;13.03;5.13;;;13.60;99.90;;;;;;5073058;28;20426;-72
2022/05/06 06:38:11;;;;;;;5.20;4.40;;;13.60;99.90;;;;;;5070068;28;20405;-72
2022/05/06 06:40:59;;;;;;;8.37;5.17;;;13.50;99.90;;;;;;5067264;28;20963;-72
2022/05/06 06:43:45;;;;;;;8.60;4.43;;;13.60;99.90;;;;;;5063068;28;20453;-72
2022/05/06 06:46:32;;;;;;;7.13;4.73;;;13.60;99.90;;;;;;5070203;28;20784;-72
2022/05/06 06:49:18;;;;;;;7.53;4.37;;;13.60;99.90;;;;;;5070295;28;20444;-72
2022/05/06 06:52:03;;;;;;;7.10;4.20;;;13.60;99.90;;;;;;5070916;28;20450;-72
2022/05/06 06:54:49;;;;;;;16.70;5.30;;;13.60;99.90;;;;;;5064913;28;20432;-71
2022/05/06 06:57:36;;;;;;;8.30;4.90;;;13.60;99.90;;;;;;5069821;28;20570;-71
2022/05/06 07:00:22;;;;;;;6.97;4.67;;;13.70;99.90;;;;;;5067218;28;20805;-72
2022/05/06 07:03:08;;;;;;;7.40;4.50;;;13.70;99.90;;;;;;5066675;28;20561;-72
2022/05/06 07:12:00;;;;;;;9.50;5.00;;;13.90;99.90;;;;;;5067523;28;20496;-72
2022/05/06 07:14:47;;;;;;;10.00;4.60;;;13.90;99.90;;;;;;5058668;28;20485;-72
2022/05/06 07:17:33;;;;;;;6.20;4.77;;;14.00;99.90;;;;;;5069931;28;20999;-72
2022/05/06 07:20:19;;;;;;;6.40;4.73;;;14.10;99.90;;;;;;5069875;28;21505;-72
2022/05/06 07:23:05;;;;;;;6.40;5.07;;;14.20;99.90;;;;;;5063708;28;20448;-72
2022/05/06 07:25:50;;;;;;;12.37;5.67;;;14.40;99.90;;;;;;5069423;28;20502;-72
2022/05/06 07:28:36;;;;;;;6.63;4.67;;;14.60;99.90;;;;;;5066587;28;20438;-72
2022/05/06 07:31:23;;;;;;;6.70;4.40;;;14.70;99.90;;;;;;5068066;28;20436;-72
2022/05/06 07:34:09;;;;;;;9.00;4.30;;;14.80;99.90;;;;;;5065423;28;20572;-72
2022/05/06 07:36:55;;;;;;;8.63;4.60;;;14.90;99.80;;;;;;5069398;28;20536;-72
2022/05/06 07:39:40;;;;;;;10.20;4.10;;;15.00;96.80;;;;;;5070026;28;20485;-72
2022/05/06 07:42:28;;;;;;;9.83;4.47;;;15.10;96.00;;;;;;5069315;28;20438;-72
2022/05/06 07:45:15;;;;;;;8.57;5.27;;;15.30;93.60;;;;;;5065713;28;20443;-72
2022/05/06 07:48:06;;;;;;;8.20;4.27;;;15.40;94.40;;;;;;5065829;28;20432;-72
2022/05/06 07:50:52;;;;;;;11.27;4.10;;;15.50;94.00;;;;;;5070661;28;20450;-72
2022/05/06 07:53:38;;;;;;;7.00;3.70;;;15.50;93.20;;;;;;5068747;28;21275;-72
2022/05/06 07:56:24;;;;;;;6.83;3.87;;;15.60;91.60;;;;;;5069257;28;20415;-72
2022/05/06 07:59:09;;;;;;;5.73;3.67;;;15.70;91.00;;;;;;5067095;28;20915;-72
2022/05/06 08:04:59;;;;;;;9.10;4.10;;;15.90;87.30;;;;;;5065071;28;20475;-72
2022/05/06 08:07:45;;;;;;;6.60;4.23;;;15.90;89.50;;;;;;5064396;28;20489;-72
2022/05/06 08:10:30;;;;;;;11.63;3.70;;;16.10;86.00;;;;;;5067831;28;20509;-72
2022/05/06 08:13:17;;;;;;;11.40;3.60;;;16.10;88.50;;;;;;5060800;28;20837;-72
2022/05/06 08:16:03;;;;;;;6.53;3.60;;;16.30;88.00;;;;;;5068840;28;20442;-72
2022/05/06 08:18:49;;;;;;;5.87;3.03;;;16.50;86.20;;;;;;5060619;28;20442;-71
2022/05/06 08:21:36;;;;;;;6.37;3.60;;;16.50;81.30;;;;;;5065169;28;20420;-71
2022/05/06 08:24:22;;;;;;;5.37;3.43;;;16.70;82.40;;;;;;5059554;28;20878;-71
2022/05/06 08:27:10;;;;;;;3.60;2.93;;;16.80;84.00;;;;;;5063851;28;20455;-71
2022/05/06 08:29:56;;;;;;;5.90;3.10;;;17.00;76.10;;;;;;5062051;28;20467;-71
2022/05/06 08:32:42;;;;;;;5.87;3.30;;;17.10;76.00;;;;;;5057377;28;20425;-71
2022/05/06 08:35:27;;;;;;;4.80;3.37;;;17.10;78.10;;;;;;5056846;28;20451;-71
2022/05/06 08:38:15;;;;;;;6.83;3.37;;;17.20;75.80;;;;;;5064182;28;20445;-71
2022/05/06 08:41:02;;;;;;;7.27;3.23;;;17.20;79.10;;;;;;5057225;28;20446;-71
2022/05/06 08:43:48;;;;;;;5.60;2.60;;;17.30;78.60;;;;;;5065988;28;20981;-71
2022/05/06 08:52:44;;;;;;;4.10;2.67;;;17.50;71.60;;;;;;5045094;28;20437;-71
2022/05/06 08:55:31;;;;;;;4.87;2.90;;;17.50;66.30;;;;;;5059468;28;20497;-72
2022/05/06 08:58:17;;;;;;;5.93;2.87;;;17.50;64.70;;;;;;5067207;28;20965;-72
2022/05/06 09:01:05;;;;;;;5.57;2.80;;;17.50;63.20;;;;;;5066014;28;20945;-72
2022/05/06 09:03:50;;;;;;;5.83;2.50;;;17.50;61.70;;;;;;5064281;28;20444;-72
2022/05/06 09:06:36;;;;;;;5.17;2.23;;;17.60;63.00;;;;;;5069694;28;20427;-72
2022/05/06 09:09:22;;;;;;;5.60;2.33;;;17.70;57.40;;;;;;5062131;28;20425;-72
2022/05/06 09:18:19;;;;;;;3.67;2.30;;;18.00;56.40;;;;;;5056461;28;20467;-71
2022/05/06 09:21:13;;;;;;;4.80;2.03;;;18.10;53.30;;;;;;5064827;28;20416;-72
2022/05/06 09:24:16;;;;;;;5.60;2.53;;;18.20;53.60;;;;;;5062311;28;20603;-72
2022/05/06 09:27:06;;;;;;;9.63;2.30;;;18.30;52.20;;;;;;5053787;28;20917;-72
2022/05/06 09:29:54;;;;;;;4.43;2.30;;;18.20;51.40;;;;;;5058282;28;20826;-71
2022/05/06 09:32:40;;;;;;;5.37;2.33;;;18.30;49.30;;;;;;5059990;28;20454;-72
2022/05/06 09:35:28;;;;;;;6.10;2.70;;;18.40;54.30;;;;;;5069534;28;20429;-72
2022/05/06 09:38:17;;;;;;;3.60;2.00;;;18.40;48.50;;;;;;5069756;28;20441;-72
2022/05/06 09:41:19;;;;;;;7.50;2.83;;;18.40;45.90;;;;;;5069546;28;20554;-72
2022/05/06 09:44:06;;;;;;;7.40;2.67;;;18.60;50.10;;;;;;5050862;28;20771;-71
2022/05/06 09:47:11;;;;;;;3.00;2.03;;;18.60;47.50;;;;;;5066096;28;20998;-72
2022/05/06 09:49:57;;;;;;;4.57;1.87;;;18.70;45.80;;;;;;5054807;28;21103;-72
2022/05/06 09:52:43;;;;;;;7.53;1.73;;;18.90;47.80;;;;;;5069192;28;20846;-72
2022/05/06 09:55:29;;;;;;;4.70;2.10;;;19.00;42.20;;;;;;5057554;28;20825;-72
2022/05/06 09:58:16;;;;;;;4.83;2.20;;;19.00;43.90;;;;;;5058696;28;21004;-72
2022/05/06 10:01:02;;;;;;;4.23;1.80;;;19.00;41.90;;;;;;5058601;28;20445;-72
2022/05/06 10:03:50;;;;;;;5.43;1.80;;;19.10;45.00;;;;;;5056742;28;20508;-72
2022/05/06 10:06:36;;;;;;;7.37;2.13;;;19.20;44.60;;;;;;5072024;28;21032;-71
2022/05/06 10:09:24;;;;;;;3.60;2.23;;;19.30;45.80;;;;;;5074147;28;20539;-71
2022/05/06 10:12:12;;;;;;;6.13;2.40;;;19.40;43.10;;;;;;5065943;28;20442;-72
2022/05/06 10:15:02;;;;;;;5.13;1.90;;;19.50;43.00;;;;;;5078291;28;20995;-72
2022/05/06 10:17:53;;;;;;;2.90;1.87;;;19.60;42.50;;;;;;5061157;28;20462;-72
2022/05/06 10:21:01;;;;;;;3.90;1.90;;;19.70;41.50;;;;;;5055321;28;20928;-71
2022/05/06 10:23:52;;;;;;;4.23;2.23;;;19.80;42.80;;;;;;5063153;28;20467;-71
2022/05/06 10:26:43;;;;;;;3.63;2.03;;;19.90;42.80;;;;;;5057936;28;20936;-72
2022/05/06 10:33:03;;;;;;;4.90;1.87;;;19.90;39.70;;;;;;5067900;28;20443;-71
2022/05/06 10:35:49;;;;;;;3.97;2.37;;;20.00;42.10;;;;;;5064019;28;20872;-71
2022/05/06 10:38:48;;;;;;;3.43;2.20;;;20.00;41.40;;;;;;5064301;28;20445;-71
2022/05/06 10:41:33;;;;;;;5.30;2.47;;;20.10;40.00;;;;;;5063866;28;20806;-71
2022/05/06 10:44:36;;;;;;;3.23;2.30;;;20.20;41.10;;;;;;5060620;28;20475;-72
2022/05/06 10:47:50;;;;;;;4.00;2.00;;;20.30;42.60;;;;;;5055864;28;20575;-72
2022/05/06 10:50:39;;;;;;;3.50;1.73;;;20.40;41.70;;;;;;5057745;28;20601;-71
2022/05/06 10:53:36;;;;;;;4.13;1.70;;;20.60;43.70;;;;;;5072024;28;21242;-72
2022/05/06 10:56:21;;;;;;;4.90;2.70;;;20.50;41.00;;;;;;5059008;28;20442;-72
2022/05/06 10:59:07;;;;;;;5.50;2.43;;;20.50;41.20;;;;;;5054750;28;20503;-71
2022/05/06 11:01:53;;;;;;;5.80;2.20;;;20.60;40.40;;;;;;5057225;28;20453;-72
2022/05/06 11:04:38;;;;;;;3.70;2.27;;;20.70;42.90;;;;;;5061598;28;20441;-72
2022/05/06 11:07:25;;;;;;;4.17;2.40;;;20.80;42.10;;;;;;5056911;28;21034;-71
2022/05/06 11:10:13;;;;;;;8.20;2.70;;;20.90;40.10;;;;;;5054534;28;20539;-72
2022/05/06 11:13:01;;;;;;;6.63;2.23;;;21.00;38.50;;;;;;5064790;28;20447;-72
2022/05/06 11:15:46;;;;;;;3.60;1.90;;;20.70;36.70;;;;;;5064759;28;20717;-71
2022/05/06 11:18:42;;;;;;;4.57;2.07;;;20.60;38.90;;;;;;5070470;28;20490;-72
2022/05/06 11:21:31;;;;;;;3.10;1.83;;;20.50;37.10;;;;;;5065038;28;20460;-72
2022/05/06 11:24:17;;;;;;;3.70;1.70;;;20.60;40.20;;;;;;5054867;28;20525;-72
2022/05/06 11:27:14;;;;;;;8.33;2.40;;;20.80;42.70;;;;;;5056914;28;20448;-72
2022/05/06 11:30:01;;;;;;;7.13;2.00;;;21.00;40.60;;;;;;5058149;28;20541;-72
2022/05/06 11:32:53;;;;;;;3.23;1.97;;;21.30;40.90;;;;;;5052235;28;20475;-72
2022/05/06 11:35:47;;;;;;;4.67;1.93;;;21.40;41.10;;;;;;5063013;28;20439;-72
2022/05/06 11:38:34;;;;;;;12.97;3.63;;;21.50;37.60;;;;;;5066899;28;20795;-72
2022/05/06 11:41:20;;;;;;;4.60;2.20;;;21.50;37.40;;;;;;5070988;28;20783;-72
2022/05/06 11:44:07;;;;;;;3.47;2.30;;;21.50;38.60;;;;;;5069369;28;20493;-72
2022/05/06 11:49:59;;;;;;;3.57;1.73;;;21.50;37.60;;;;;;5060013;28;20499;-72
2022/05/06 11:52:46;;;;;;;8.10;2.20;;;21.60;37.30;;;;;;5066113;28;20446;-72
2022/05/06 11:55:33;;;;;;;2.60;1.70;;;21.70;36.90;;;;;;5067111;28;20965;-72
2022/05/06 11:58:18;;;;;;;3.57;1.90;;;21.90;38.20;;;;;;5069788;28;20830;-72
2022/05/06 12:01:06;;;;;;;2.97;1.87;;;21.90;36.30;;;;;;5058759;28;20448;-72
2022/05/06 12:03:52;;;;;;;4.40;1.63;;;22.00;35.70;;;;;;5069825;28;20994;-72
2022/05/06 12:06:38;;;;;;;3.47;2.10;;;22.00;37.70;;;;;;5063191;28;20413;-72
2022/05/06 12:09:24;;;;;;;7.37;2.70;;;22.10;38.40;;;;;;5060689;28;20950;-72
2022/05/06 12:12:11;;;;;;;5.60;1.90;;;22.20;35.20;;;;;;5063845;28;20458;-72
2022/05/06 12:15:10;;;;;;;5.40;1.80;;;22.30;35.70;;;;;;5070091;28;20421;-72
2022/05/06 12:18:04;;;;;;;6.43;2.47;;;22.30;36.90;;;;;;5071315;28;20978;-72
2022/05/06 12:20:49;;;;;;;5.43;2.30;;;22.20;35.60;;;;;;5068942;28;20461;-72
2022/05/06 12:23:35;;;;;;;2.67;1.80;;;22.00;35.80;;;;;;5072836;28;20461;-72
2022/05/06 12:26:35;;;;;;;3.53;2.40;;;21.90;39.20;;;;;;5064801;28;20959;-72
2022/05/06 12:29:21;;;;;;;4.67;2.07;;;21.90;37.50;;;;;;5059452;28;20459;-72
2022/05/06 12:32:08;;;;;;;3.40;2.00;;;21.90;36.00;;;;;;5060624;28;20996;-72
2022/05/06 12:35:06;;;;;;;3.50;1.70;;;22.10;37.60;;;;;;5053681;28;20572;-72
2022/05/06 12:37:56;;;;;;;3.43;2.13;;;22.30;35.30;;;;;;5053811;28;20441;-72
2022/05/06 12:40:42;;;;;;;5.40;2.27;;;22.40;34.70;;;;;;5068771;28;20442;-72
2022/05/06 12:43:28;;;;;;;3.90;1.87;;;22.20;36.70;;;;;;5062309;28;20443;-72
2022/05/06 12:46:25;;;;;;;5.90;2.03;;;22.00;36.60;;;;;;5067438;28;20844;-72
2022/05/06 12:52:16;;;;;;;6.43;1.97;;;21.70;37.60;;;;;;5061639;28;20442;-72
2022/05/06 12:55:03;;;;;;;4.20;2.20;;;22.00;35.40;;;;;;5053805;22;20455;-82
2022/05/06 12:57:49;;;;;;;4.63;2.30;;;22.10;35.50;;;;;;5046521;28;20484;-83
2022/05/06 13:00:37;;;;;;;3.00;1.80;;;22.40;35.10;;;;;;5050124;28;20479;-82
2022/05/06 13:03:22;;;;;;;3.90;2.30;;;22.70;34.40;;;;;;5069325;28;20434;-82
2022/05/06 13:06:08;;;;;;;3.20;2.00;;;23.10;33.80;;;;;;5069477;28;20442;-83
2022/05/06 13:08:55;;;;;;;3.30;1.80;;;23.30;32.30;;;;;;5066244;28;20862;-83
2022/05/06 13:11:40;;;;;;;3.70;2.23;;;23.40;35.60;;;;;;5069233;28;21147;-83
2022/05/06 13:14:26;;;;;;;9.60;2.30;;;23.60;32.00;;;;;;5068548;28;20442;-84
2022/05/06 13:17:12;;;;;;;3.57;1.80;;;23.50;32.50;;;;;;5068752;28;20586;-84
2022/05/06 13:19:57;;;;;;;5.00;1.83;;;23.20;32.00;;;;;;5057898;28;20470;-83
2022/05/06 13:22:43;;;;;;;3.80;1.90;;;22.80;31.70;;;;;;5059652;28;20431;-83
2022/05/06 13:25:30;;;;;;;3.63;2.30;;;22.50;30.70;;;;;;5070929;28;20446;-83
2022/05/06 13:28:16;;;;;;;3.10;2.00;;;22.40;31.70;;;;;;5070339;28;20446;-85
2022/05/06 13:31:02;;;;;;;5.27;1.90;;;22.60;32.60;;;;;;5062363;28;20474;-84
2022/05/06 13:33:48;;;;;;;3.10;1.70;;;22.90;34.60;;;;;;5063027;28;20787;-83
2022/05/06 13:36:34;;;;;;;3.80;1.40;;;23.20;33.70;;;;;;5071590;28;20931;-83
2022/05/06 13:39:20;;;;;;;4.50;1.80;;;23.50;31.60;;;;;;5065498;28;20502;-83
2022/05/06 13:42:07;;;;;;;16.70;1.63;;;23.90;31.90;;;;;;5061384;28;20473;-83
2022/05/06 13:44:53;;;;;;;3.77;1.67;;;24.20;31.00;;;;;;5071297;28;20451;-84
2022/05/06 13:47:39;;;;;;;4.30;1.80;;;24.40;30.00;;;;;;5069478;28;20529;-84
2022/05/06 13:50:25;;;;;;;7.50;2.00;;;24.50;31.10;;;;;;5068920;28;20983;-83
2022/05/06 13:53:10;;;;;;;2.90;1.90;;;24.60;27.60;;;;;;5069993;28;20511;-83
2022/05/06 13:59:07;;;;;;;5.97;1.80;;;24.80;27.60;;;;;;5067001;28;20471;-84
2022/05/06 14:01:53;;;;;;;4.60;1.87;;;24.80;27.80;;;;;;5072785;28;20457;-83
2022/05/06 14:04:40;;;;;;;4.17;1.93;;;24.70;28.50;;;;;;5071047;28;20565;-83
2022/05/06 14:07:25;;;;;;;3.40;1.67;;;24.60;29.50;;;;;;5070336;28;20982;-83
2022/05/06 14:10:12;;;;;;;2.60;1.53;;;24.70;28.60;;;;;;5066118;28;20446;-83
2022/05/06 14:12:57;;;;;;;3.00;1.23;;;24.60;28.40;;;;;;5063384;28;20854;-83
2022/05/06 14:15:44;;;;;;;3.33;1.70;;;24.60;30.20;;;;;;5070985;28;20439;-83
2022/05/06 14:18:30;;;;;;;5.30;1.83;;;24.50;26.90;;;;;;5065714;28;20479;-84
2022/05/06 14:21:16;;;;;;;3.53;1.80;;;24.40;27.10;;;;;;5065299;28;21040;-83
2022/05/06 14:24:02;;;;;;;5.50;1.40;;;24.50;28.10;;;;;;5068477;28;20508;-83
2022/05/06 14:26:48;;;;;;;3.70;1.30;;;24.60;26.90;;;;;;5061357;28;20446;-84
2022/05/06 14:29:35;;;;;;;5.60;1.60;;;24.50;26.30;;;;;;5068070;28;20524;-83
2022/05/06 14:32:22;;;;;;;4.63;1.27;;;24.50;27.00;;;;;;5063653;28;20455;-82
2022/05/06 14:35:17;;;;;;;2.53;1.13;;;24.50;27.30;;;;;;5068421;28;20447;-83
2022/05/06 14:38:04;;;;;;;5.67;1.57;;;24.60;26.40;;;;;;5066852;28;20434;-83
2022/05/06 14:40:49;;;;;;;3.13;1.60;;;24.50;27.50;;;;;;5074108;28;20516;-83
2022/05/06 14:43:35;;;;;;;5.13;1.40;;;24.30;27.10;;;;;;5053782;28;20432;-84
2022/05/06 14:46:21;;;;;;;10.83;1.83;;;24.10;28.00;;;;;;5054822;28;20467;-83
2022/05/06 14:49:08;;;;;;;5.73;2.70;;;23.70;27.60;;;;;;5053464;28;20506;-83
2022/05/06 14:51:55;;;;;;;2.77;1.57;;;23.80;28.20;;;;;;5055062;28;20495;-83
2022/05/06 14:54:41;;;;;;;2.73;1.50;;;23.70;26.70;;;;;;5071697;28;20439;-83
2022/05/06 14:57:26;;;;;;;2.70;1.20;;;23.60;27.80;;;;;;5073930;28;21062;-83
2022/05/06 15:00:13;;;;;;;5.73;2.00;;;23.70;27.80;;;;;;5072877;28;20474;-83
2022/05/06 15:02:59;;;;;;;5.33;1.60;;;23.60;28.10;;;;;;5060240;28;20459;-82
2022/05/06 15:05:46;;;;;;;4.20;1.53;;;23.70;27.70;;;;;;5069527;28;20450;-83
2022/05/06 15:08:32;;;;;;;2.80;1.57;;;23.40;27.80;;;;;;5069658;28;20469;-83
2022/05/06 15:11:17;;;;;;;3.57;1.53;;;23.60;29.40;;;;;;5063749;28;20843;-83
2022/05/06 15:14:03;;;;;;;3.40;1.37;;;23.80;28.60;;;;;;5065509;28;20447;-83
2022/05/06 15:16:49;;;;;;;6.40;1.53;;;24.00;29.10;;;;;;5070816;28;21229;-83